Kyancutta, Australia
Current Conditions -  °F | °C
As of 3:00 AM on Thursday 27 Nov 2014 (Local Time) from YWHA Reporting Station
Clear Clear  
Wind Chill: 64°   Ceiling: Unl
Heat Index: 64°   Visibility: 6mi
Dew Point: 52°   Wind: 8mph
Humidity: 64%   Direction: 150°SSE
Pressure: 30.12"   Gusts: NA
Location:  33.13°S, 135.55°E
Report Text: YWHA 261700Z AUTO 15007KT 9999 // NCD 18/11 Q1020
Loading
Personal Weather Stations






























Interactive Weather Map New forecast layout! Learn more

10-Day Weather Forecast

Advertisements
Track Severe Weather on mobile